createdAt,value
2019-04-30T00:02:29.320Z,8.00
2019-04-30T00:04:57.059Z,8.00
2019-04-30T00:07:26.436Z,8.00
2019-04-30T00:09:57.620Z,8.00
2019-04-30T00:12:30.958Z,8.00
2019-04-30T00:14:58.271Z,8.00
2019-04-30T00:17:29.223Z,8.00
2019-04-30T00:20:00.018Z,8.10
2019-04-30T00:22:33.997Z,8.10
2019-04-30T00:25:00.559Z,8.10
2019-04-30T00:27:30.356Z,8.10
2019-04-30T00:30:07.397Z,8.20
2019-04-30T00:32:39.029Z,8.20
2019-04-30T00:35:07.289Z,8.30
2019-04-30T00:37:37.278Z,8.30
2019-04-30T00:40:06.598Z,8.30
2019-04-30T00:42:35.914Z,8.30
2019-04-30T00:45:09.999Z,8.30
2019-04-30T00:47:43.704Z,8.30
2019-04-30T00:50:10.696Z,8.30
2019-04-30T00:52:40.014Z,8.20
2019-04-30T00:55:09.405Z,8.10
2019-04-30T00:57:43.830Z,8.10
2019-04-30T01:00:19.712Z,7.90
2019-04-30T01:02:49.963Z,7.90
2019-04-30T01:05:22.867Z,7.80
2019-04-30T01:07:52.257Z,7.70
2019-04-30T01:10:24.751Z,7.70
2019-04-30T01:12:52.974Z,7.60
2019-04-30T01:15:22.295Z,7.60
2019-04-30T01:17:54.001Z,7.60
2019-04-30T01:20:30.971Z,7.60
2019-04-30T01:22:56.197Z,7.60
2019-04-30T01:25:25.891Z,7.70
2019-04-30T01:27:55.377Z,7.80
2019-04-30T01:30:25.565Z,7.80
2019-04-30T01:32:56.552Z,7.80
2019-04-30T01:35:29.040Z,7.80
2019-04-30T01:37:57.050Z,7.80
2019-04-30T01:40:26.404Z,7.70
2019-04-30T01:42:56.316Z,7.70
2019-04-30T01:45:28.132Z,7.60
2019-04-30T01:48:00.605Z,7.50
2019-04-30T01:50:29.278Z,7.50
2019-04-30T01:52:59.141Z,7.40
2019-04-30T01:55:30.249Z,7.40
2019-04-30T01:58:19.579Z,7.30
2019-04-30T02:00:50.563Z,7.30
2019-04-30T02:03:19.917Z,7.20
2019-04-30T02:05:49.897Z,7.10
2019-04-30T02:08:19.684Z,7.10
2019-04-30T02:10:51.295Z,7.00
2019-04-30T02:13:20.196Z,7.00
2019-04-30T02:15:49.525Z,7.00
2019-04-30T02:18:19.554Z,6.90
2019-04-30T02:20:49.757Z,6.90
2019-04-30T02:23:19.675Z,6.80
2019-04-30T02:25:49.220Z,6.80
2019-04-30T02:28:19.001Z,6.80
2019-04-30T02:30:50.397Z,6.80
2019-04-30T02:33:20.575Z,6.70
2019-04-30T02:36:03.238Z,6.60
2019-04-30T02:38:30.324Z,6.60
2019-04-30T02:41:01.663Z,6.50
2019-04-30T02:43:33.197Z,6.50
2019-04-30T02:46:04.284Z,6.50
2019-04-30T02:48:36.125Z,6.40
2019-04-30T02:51:10.109Z,6.40
2019-04-30T02:53:51.618Z,6.30
2019-04-30T02:56:26.538Z,6.30
2019-04-30T02:58:54.776Z,6.20
2019-04-30T03:01:24.144Z,6.10
2019-04-30T03:03:53.577Z,6.10
2019-04-30T03:06:23.644Z,6.00
2019-04-30T03:08:53.390Z,6.00
2019-04-30T03:11:22.786Z,6.00
2019-04-30T03:13:52.114Z,5.90
2019-04-30T03:16:30.246Z,5.90
2019-04-30T03:19:03.207Z,5.90
2019-04-30T03:21:43.149Z,5.90
2019-04-30T03:24:12.476Z,5.90
2019-04-30T03:26:42.787Z,5.90
2019-04-30T03:29:12.114Z,6.00
2019-04-30T03:31:45.297Z,6.00
2019-04-30T03:34:23.200Z,6.00
2019-04-30T03:36:44.077Z,6.10
2019-04-30T03:39:13.405Z,6.10
2019-04-30T03:41:42.739Z,6.20
2019-04-30T03:44:21.362Z,6.20
2019-04-30T03:46:43.077Z,6.30
2019-04-30T03:49:13.245Z,6.40
2019-04-30T03:51:43.743Z,6.60
2019-04-30T03:54:13.075Z,6.60
2019-04-30T03:56:43.267Z,6.70
2019-04-30T03:59:12.586Z,6.80
2019-04-30T04:01:46.575Z,6.80
2019-04-30T04:04:23.520Z,6.80
2019-04-30T04:07:00.080Z,6.90
2019-04-30T04:09:33.772Z,6.90
2019-04-30T04:12:21.728Z,6.90
2019-04-30T04:14:51.353Z,6.80
2019-04-30T04:17:22.616Z,6.80
2019-04-30T04:19:52.019Z,6.90
2019-04-30T04:22:21.798Z,6.90
2019-04-30T04:24:51.838Z,6.90
2019-04-30T04:27:21.170Z,6.90
2019-04-30T04:29:51.241Z,6.80
2019-04-30T04:32:24.446Z,6.80
2019-04-30T04:34:54.209Z,6.80
2019-04-30T04:37:23.531Z,6.70
2019-04-30T04:39:52.858Z,6.70
2019-04-30T04:42:22.178Z,6.70
2019-04-30T04:44:51.572Z,6.60
2019-04-30T04:47:20.925Z,6.60
2019-04-30T04:49:53.588Z,6.60
2019-04-30T04:52:21.987Z,6.60
2019-04-30T04:54:51.786Z,6.60
2019-04-30T04:57:22.616Z,6.70
2019-04-30T04:59:52.135Z,6.70
2019-04-30T05:02:39.818Z,6.70
2019-04-30T05:05:09.865Z,6.70
2019-04-30T05:07:39.887Z,6.70
2019-04-30T05:10:10.335Z,6.80
2019-04-30T05:12:39.991Z,6.70
2019-04-30T05:15:12.244Z,6.80
2019-04-30T05:17:41.572Z,6.90
2019-04-30T05:20:11.127Z,7.00
2019-04-30T05:22:40.453Z,7.00
2019-04-30T05:25:10.012Z,7.00
2019-04-30T05:27:39.446Z,7.00
2019-04-30T05:30:12.242Z,7.10
2019-04-30T05:32:42.596Z,7.20
2019-04-30T05:35:12.612Z,7.20
2019-04-30T05:37:41.941Z,7.20
2019-04-30T05:40:11.607Z,7.20
2019-04-30T05:42:40.933Z,7.20
2019-04-30T05:45:11.214Z,7.30
2019-04-30T05:47:40.534Z,7.30
2019-04-30T05:50:10.300Z,7.50
2019-04-30T05:52:39.945Z,7.60
2019-04-30T05:55:11.036Z,7.70
2019-04-30T05:57:52.753Z,7.70
2019-04-30T06:00:11.937Z,7.90
2019-04-30T06:02:41.359Z,8.00
2019-04-30T06:05:10.750Z,8.40
2019-04-30T06:07:40.072Z,8.70
2019-04-30T06:10:14.084Z,8.90
2019-04-30T06:12:50.863Z,9.30
2019-04-30T06:15:21.899Z,9.70
2019-04-30T06:18:00.324Z,10.00
2019-04-30T06:20:24.817Z,10.30
2019-04-30T06:22:56.212Z,10.60
2019-04-30T06:25:32.346Z,10.70
2019-04-30T06:27:58.878Z,10.80
2019-04-30T06:30:29.734Z,10.70
2019-04-30T06:33:01.156Z,10.80
2019-04-30T06:35:31.591Z,10.90
2019-04-30T06:38:00.990Z,10.60
2019-04-30T06:40:30.312Z,10.50
2019-04-30T06:43:00.836Z,10.60
2019-04-30T06:45:31.371Z,10.80
2019-04-30T06:48:02.954Z,11.10
2019-04-30T06:50:32.552Z,11.50
2019-04-30T06:53:01.876Z,11.70
2019-04-30T06:55:32.104Z,11.90
2019-04-30T06:58:11.864Z,11.80
2019-04-30T07:00:40.221Z,11.70
2019-04-30T07:03:09.973Z,11.80
2019-04-30T07:05:39.523Z,11.80
2019-04-30T07:08:22.694Z,11.70
2019-04-30T07:11:00.458Z,11.60
2019-04-30T07:13:29.703Z,12.00
2019-04-30T07:15:59.112Z,12.00
2019-04-30T07:18:28.895Z,12.00
2019-04-30T07:20:58.710Z,12.40
2019-04-30T07:23:28.566Z,12.40
2019-04-30T07:25:59.061Z,12.50
2019-04-30T07:28:43.223Z,12.50
2019-04-30T07:31:10.205Z,13.00
2019-04-30T07:33:32.297Z,13.40
2019-04-30T07:36:01.874Z,13.60
2019-04-30T07:38:35.663Z,13.60
2019-04-30T07:41:02.939Z,13.50
2019-04-30T07:43:32.276Z,13.70
2019-04-30T07:46:02.236Z,14.00
2019-04-30T07:48:32.160Z,13.90
2019-04-30T07:51:02.471Z,14.20
2019-04-30T07:53:31.791Z,14.50
2019-04-30T07:56:02.218Z,14.80
2019-04-30T07:58:31.727Z,14.80
2019-04-30T08:01:01.235Z,14.90
2019-04-30T08:03:49.999Z,15.40
2019-04-30T08:06:22.056Z,15.40
2019-04-30T08:08:51.641Z,15.30
2019-04-30T08:11:25.707Z,15.40
2019-04-30T08:13:52.685Z,15.50
2019-04-30T08:16:23.607Z,15.50
2019-04-30T08:18:52.938Z,15.70
2019-04-30T08:21:22.271Z,15.90
2019-04-30T08:23:51.608Z,16.10
2019-04-30T08:26:20.940Z,16.20
2019-04-30T08:28:50.347Z,16.30
2019-04-30T08:31:19.706Z,16.40
2019-04-30T08:33:50.392Z,16.10
2019-04-30T08:36:19.819Z,16.10
2019-04-30T08:38:49.608Z,16.10
2019-04-30T08:41:19.426Z,16.30
2019-04-30T08:43:49.928Z,16.80
2019-04-30T08:46:20.240Z,16.90
2019-04-30T08:48:51.721Z,17.50
2019-04-30T08:51:20.804Z,17.50
2019-04-30T08:53:50.307Z,17.60
2019-04-30T08:56:22.008Z,17.30
2019-04-30T08:58:50.672Z,17.50
2019-04-30T09:01:20.069Z,17.00
2019-04-30T09:03:51.375Z,17.10
2019-04-30T09:06:22.076Z,17.00
2019-04-30T09:08:52.696Z,17.50
2019-04-30T09:11:28.305Z,17.60
2019-04-30T09:13:53.066Z,17.70
2019-04-30T09:16:22.395Z,17.80
2019-04-30T09:18:53.346Z,17.80
2019-04-30T09:21:22.676Z,18.10
2019-04-30T09:23:52.887Z,18.10
2019-04-30T09:26:22.328Z,18.10
2019-04-30T09:28:51.656Z,18.50
2019-04-30T09:31:21.147Z,18.70
2019-04-30T09:33:50.476Z,19.00
2019-04-30T09:36:20.844Z,19.40
2019-04-30T09:38:50.408Z,19.40
2019-04-30T09:41:19.749Z,19.00
2019-04-30T09:43:49.482Z,19.00
2019-04-30T09:46:26.335Z,18.80
2019-04-30T09:48:50.868Z,18.20
2019-04-30T09:51:24.114Z,18.70
2019-04-30T09:53:59.186Z,19.00
2019-04-30T09:56:23.202Z,19.30
2019-04-30T09:58:52.524Z,19.20
2019-04-30T10:01:22.106Z,18.90
2019-04-30T10:03:52.951Z,19.00
2019-04-30T10:06:22.532Z,19.10
2019-04-30T10:08:53.880Z,19.20
2019-04-30T10:11:33.767Z,19.10
2019-04-30T10:14:03.194Z,18.70
2019-04-30T10:16:46.087Z,19.40
2019-04-30T10:19:15.428Z,19.80
2019-04-30T10:21:44.762Z,19.50
2019-04-30T10:24:15.786Z,20.00
2019-04-30T10:26:45.383Z,20.70
2019-04-30T10:29:16.119Z,21.00
2019-04-30T10:31:45.491Z,21.10
2019-04-30T10:34:15.628Z,21.20
2019-04-30T10:36:44.955Z,21.30
2019-04-30T10:39:15.477Z,21.50
2019-04-30T10:41:44.872Z,21.50
2019-04-30T10:44:14.200Z,21.70
2019-04-30T10:46:44.112Z,21.40
2019-04-30T10:49:13.580Z,20.90
2019-04-30T10:51:42.902Z,21.10
2019-04-30T10:54:23.175Z,21.20
2019-04-30T10:56:43.271Z,21.40
2019-04-30T10:59:12.680Z,20.90
2019-04-30T11:01:43.079Z,21.60
2019-04-30T11:04:14.121Z,21.60
2019-04-30T11:06:43.460Z,21.00
2019-04-30T11:09:12.793Z,21.40
2019-04-30T11:11:42.513Z,21.20
2019-04-30T11:14:11.839Z,21.00
2019-04-30T11:16:42.184Z,21.30
2019-04-30T11:19:11.729Z,21.20
2019-04-30T11:21:41.292Z,21.30
2019-04-30T11:24:10.939Z,21.80
2019-04-30T11:26:41.329Z,21.40
2019-04-30T11:29:11.448Z,21.40
2019-04-30T11:31:57.697Z,21.70
2019-04-30T11:34:29.336Z,21.80
2019-04-30T11:36:58.670Z,21.70
2019-04-30T11:39:29.771Z,21.40
2019-04-30T11:41:59.385Z,20.70
2019-04-30T11:44:31.491Z,20.90
2019-04-30T11:47:09.483Z,21.00
2019-04-30T11:49:39.088Z,21.10
2019-04-30T11:52:08.424Z,21.10
2019-04-30T11:54:48.659Z,21.30
2019-04-30T11:57:09.914Z,21.40
2019-04-30T11:59:39.603Z,21.10
2019-04-30T12:02:16.714Z,21.10
2019-04-30T12:04:46.042Z,20.90
2019-04-30T12:07:37.244Z,21.30
2019-04-30T12:10:11.895Z,21.50
2019-04-30T12:12:41.779Z,21.60
2019-04-30T12:15:11.483Z,22.30
2019-04-30T12:17:40.893Z,22.60
2019-04-30T12:20:10.469Z,22.50
2019-04-30T12:22:39.815Z,22.50
2019-04-30T12:25:10.001Z,22.90
2019-04-30T12:27:40.687Z,23.20
2019-04-30T12:30:11.012Z,23.40
2019-04-30T12:32:40.351Z,22.60
2019-04-30T12:35:11.713Z,22.10
2019-04-30T12:37:41.041Z,22.00
2019-04-30T12:40:25.764Z,22.10
2019-04-30T12:42:43.990Z,22.60
2019-04-30T12:45:13.451Z,22.70
2019-04-30T12:47:44.421Z,22.50
2019-04-30T12:50:15.934Z,23.00
2019-04-30T12:52:46.921Z,22.60
2019-04-30T12:55:17.889Z,22.10
2019-04-30T12:57:58.307Z,22.00
2019-04-30T13:00:20.120Z,21.60
2019-04-30T13:02:49.447Z,21.00
2019-04-30T13:05:19.350Z,19.90
2019-04-30T13:07:49.933Z,19.40
2019-04-30T13:10:20.652Z,19.30
2019-04-30T13:12:51.863Z,19.60
2019-04-30T13:15:21.605Z,20.30
2019-04-30T13:17:50.940Z,20.20
2019-04-30T13:20:23.845Z,20.80
2019-04-30T13:22:51.292Z,20.80
2019-04-30T13:25:30.326Z,20.70
2019-04-30T13:28:00.413Z,21.10
2019-04-30T13:30:31.949Z,22.30
2019-04-30T13:33:02.935Z,23.40
2019-04-30T13:35:32.790Z,23.60
2019-04-30T13:38:17.316Z,24.00
2019-04-30T13:40:48.986Z,24.00
2019-04-30T13:43:20.146Z,24.40
2019-04-30T13:45:51.773Z,24.50
2019-04-30T13:48:20.494Z,25.10
2019-04-30T13:50:49.832Z,25.90
2019-04-30T13:53:19.163Z,26.20
2019-04-30T13:55:49.777Z,26.20
2019-04-30T13:58:19.101Z,26.00
2019-04-30T14:00:49.445Z,25.50
2019-04-30T14:03:23.149Z,25.50
2019-04-30T14:05:52.492Z,25.40
2019-04-30T14:08:23.459Z,25.90
2019-04-30T14:10:53.892Z,26.40
2019-04-30T14:13:24.758Z,26.50
2019-04-30T14:15:54.088Z,26.20
2019-04-30T14:18:30.599Z,26.50
2019-04-30T14:20:54.459Z,26.00
2019-04-30T14:23:23.801Z,26.20
2019-04-30T14:25:56.736Z,26.60
2019-04-30T14:28:24.740Z,27.00
2019-04-30T14:30:54.068Z,26.80
2019-04-30T14:33:26.609Z,26.70
2019-04-30T14:35:56.467Z,26.60
2019-04-30T14:38:25.810Z,26.10
2019-04-30T14:40:55.416Z,24.80
2019-04-30T14:43:31.592Z,24.90
2019-04-30T14:46:20.843Z,25.10
2019-04-30T14:48:56.087Z,24.40
2019-04-30T14:51:27.695Z,24.70
2019-04-30T14:54:13.720Z,25.20
2019-04-30T14:56:49.293Z,26.10
2019-04-30T14:59:38.891Z,25.60
2019-04-30T15:02:21.695Z,25.80
2019-04-30T15:04:51.047Z,25.90
2019-04-30T15:07:20.382Z,26.30
2019-04-30T15:09:49.700Z,26.20
2019-04-30T15:12:19.068Z,26.30
2019-04-30T15:14:49.296Z,26.10
2019-04-30T15:17:18.825Z,26.00
2019-04-30T15:19:54.118Z,26.20
2019-04-30T15:22:20.528Z,26.60
2019-04-30T15:24:49.865Z,26.40
2019-04-30T15:27:19.268Z,26.30
2019-04-30T15:30:23.464Z,26.30
2019-04-30T15:32:55.000Z,26.40
2019-04-30T15:35:24.354Z,26.50
2019-04-30T15:38:09.516Z,26.20
2019-04-30T15:40:39.026Z,24.80
2019-04-30T15:43:08.447Z,22.60
2019-04-30T15:45:39.190Z,21.60
2019-04-30T15:48:08.657Z,21.00
2019-04-30T15:50:45.747Z,20.50
2019-04-30T15:53:27.086Z,19.90
2019-04-30T15:55:56.412Z,19.80
2019-04-30T15:58:28.997Z,19.70
2019-04-30T16:00:59.442Z,19.50
2019-04-30T16:03:32.419Z,19.30
2019-04-30T16:06:03.403Z,18.80
2019-04-30T16:08:40.457Z,18.70
2019-04-30T16:11:14.107Z,18.90
2019-04-30T16:13:49.500Z,19.00
2019-04-30T16:16:20.094Z,18.90
2019-04-30T16:18:51.632Z,19.00
2019-04-30T16:21:20.972Z,18.90
2019-04-30T16:23:50.382Z,18.80
2019-04-30T16:26:19.712Z,18.50
2019-04-30T16:28:49.596Z,18.30
2019-04-30T16:31:20.555Z,18.30
2019-04-30T16:33:51.126Z,18.30
2019-04-30T16:36:21.064Z,18.20
2019-04-30T16:38:52.334Z,18.20
2019-04-30T16:41:31.197Z,18.10
2019-04-30T16:43:52.752Z,18.00
2019-04-30T16:46:22.091Z,17.90
2019-04-30T16:48:51.433Z,17.90
2019-04-30T16:51:20.759Z,17.80
2019-04-30T16:53:50.088Z,17.60
2019-04-30T16:56:19.768Z,17.60
2019-04-30T16:59:03.028Z,17.70
2019-04-30T17:01:33.904Z,17.70
2019-04-30T17:04:09.086Z,17.70
2019-04-30T17:06:45.956Z,17.50
2019-04-30T17:09:20.812Z,17.40
2019-04-30T17:12:08.613Z,17.20
2019-04-30T17:14:39.857Z,17.10
2019-04-30T17:17:09.192Z,17.20
2019-04-30T17:19:39.370Z,17.00
2019-04-30T17:22:08.846Z,16.90
2019-04-30T17:24:39.361Z,16.80
2019-04-30T17:27:17.186Z,16.70
2019-04-30T17:29:40.824Z,16.50
2019-04-30T17:32:10.637Z,16.50
2019-04-30T17:34:40.177Z,16.50
2019-04-30T17:37:09.505Z,16.60
2019-04-30T17:39:41.465Z,16.60
2019-04-30T17:42:10.876Z,16.40
2019-04-30T17:44:40.274Z,16.50
2019-04-30T17:47:09.616Z,16.40
2019-04-30T17:49:39.999Z,16.40
2019-04-30T17:52:09.368Z,16.50
2019-04-30T17:54:38.706Z,16.40
2019-04-30T17:57:10.454Z,16.30
2019-04-30T17:59:39.089Z,16.20
2019-04-30T18:02:10.519Z,16.00
2019-04-30T18:04:39.876Z,16.00
2019-04-30T18:07:09.966Z,15.90
2019-04-30T18:09:39.522Z,15.80
2019-04-30T18:12:09.421Z,15.70
2019-04-30T18:14:39.567Z,15.60
2019-04-30T18:17:09.374Z,15.60
2019-04-30T18:19:41.748Z,15.60
2019-04-30T18:22:19.494Z,15.60
2019-04-30T18:24:56.396Z,15.40
2019-04-30T18:27:42.411Z,15.40
2019-04-30T18:30:01.374Z,15.40
2019-04-30T18:32:31.880Z,15.30
2019-04-30T18:35:01.220Z,15.30
2019-04-30T18:37:31.264Z,15.20
2019-04-30T18:40:10.880Z,15.10
2019-04-30T18:42:40.357Z,15.10
2019-04-30T18:45:16.690Z,15.00
2019-04-30T18:47:46.024Z,15.00
2019-04-30T18:50:22.591Z,14.90
2019-04-30T18:52:53.695Z,14.90
2019-04-30T18:55:23.054Z,14.80
2019-04-30T18:57:56.822Z,14.70
2019-04-30T19:00:25.420Z,14.70
2019-04-30T19:02:54.760Z,14.70
2019-04-30T19:05:31.161Z,14.60
2019-04-30T19:08:09.815Z,14.50
2019-04-30T19:11:00.276Z,14.50
2019-04-30T19:13:32.820Z,14.40
2019-04-30T19:16:19.814Z,14.40
2019-04-30T19:18:39.782Z,14.30
2019-04-30T19:21:12.394Z,14.30
2019-04-30T19:23:41.736Z,14.20
2019-04-30T19:26:11.082Z,14.10
2019-04-30T19:28:40.428Z,14.10
2019-04-30T19:31:11.749Z,14.00
2019-04-30T19:33:41.916Z,14.00
2019-04-30T19:36:12.292Z,14.00
2019-04-30T19:38:41.629Z,13.90
2019-04-30T19:41:12.345Z,13.80
2019-04-30T19:43:41.672Z,13.70
2019-04-30T19:46:12.037Z,13.60
2019-04-30T19:48:41.483Z,13.50
2019-04-30T19:51:10.835Z,13.40
2019-04-30T19:53:40.190Z,13.40
2019-04-30T19:56:09.539Z,13.40
2019-04-30T19:58:55.497Z,13.30
2019-04-30T20:01:09.932Z,13.20
2019-04-30T20:03:40.756Z,13.20
2019-04-30T20:06:10.297Z,13.20
2019-04-30T20:08:39.648Z,13.10
2019-04-30T20:11:08.998Z,13.00
2019-04-30T20:13:40.298Z,13.00
2019-04-30T20:16:10.388Z,13.00
2019-04-30T20:18:39.722Z,12.80
2019-04-30T20:21:10.803Z,12.60
2019-04-30T20:23:40.131Z,12.40
2019-04-30T20:26:09.472Z,12.40
2019-04-30T20:28:42.255Z,12.40
2019-04-30T20:31:11.582Z,12.40
2019-04-30T20:33:40.902Z,12.40
2019-04-30T20:36:10.330Z,12.50
2019-04-30T20:38:41.380Z,12.50
2019-04-30T20:41:12.383Z,12.50
2019-04-30T20:43:42.996Z,12.60
2019-04-30T20:46:12.327Z,12.50
2019-04-30T20:48:41.656Z,12.40
2019-04-30T20:51:19.679Z,12.30
2019-04-30T20:53:49.990Z,12.30
2019-04-30T20:56:19.404Z,12.20
2019-04-30T20:58:57.386Z,12.20
2019-04-30T21:01:22.910Z,12.20
2019-04-30T21:03:52.268Z,12.10
2019-04-30T21:06:21.620Z,12.10
2019-04-30T21:08:50.968Z,12.00
2019-04-30T21:11:20.307Z,11.90
2019-04-30T21:13:49.640Z,11.80
2019-04-30T21:16:19.008Z,11.80
2019-04-30T21:18:48.344Z,11.70
2019-04-30T21:21:20.516Z,11.60
2019-04-30T21:23:51.718Z,11.50
2019-04-30T21:26:21.059Z,11.50
2019-04-30T21:28:53.751Z,11.40
2019-04-30T21:31:30.750Z,11.30
2019-04-30T21:34:04.559Z,11.30
2019-04-30T21:36:33.973Z,11.10
2019-04-30T21:39:04.652Z,10.90
2019-04-30T21:41:34.064Z,10.80
2019-04-30T21:44:04.823Z,10.60
2019-04-30T21:46:36.987Z,10.40
2019-04-30T21:49:05.761Z,10.20
2019-04-30T21:51:35.121Z,10.00
2019-04-30T21:54:04.596Z,9.80
2019-04-30T21:56:33.924Z,9.70
2019-04-30T21:59:03.253Z,9.60
2019-04-30T22:01:32.591Z,9.50
2019-04-30T22:04:03.605Z,9.50
2019-04-30T22:06:32.931Z,9.60
2019-04-30T22:09:03.309Z,9.60
2019-04-30T22:11:34.516Z,9.70
2019-04-30T22:14:04.467Z,9.90
2019-04-30T22:16:39.861Z,9.90
2019-04-30T22:19:10.315Z,9.90
2019-04-30T22:21:39.769Z,9.80
2019-04-30T22:24:09.167Z,9.80
2019-04-30T22:26:38.560Z,9.60
2019-04-30T22:29:09.199Z,9.50
2019-04-30T22:31:39.617Z,9.50
2019-04-30T22:34:09.124Z,9.40
2019-04-30T22:36:40.218Z,9.50
2019-04-30T22:39:13.886Z,9.50
2019-04-30T22:41:44.185Z,9.50
2019-04-30T22:44:14.170Z,9.50
2019-04-30T22:46:43.500Z,9.40
2019-04-30T22:49:12.916Z,9.30
2019-04-30T22:51:42.256Z,9.20
2019-04-30T22:54:11.581Z,9.00
2019-04-30T22:56:40.899Z,9.00
2019-04-30T22:59:11.291Z,8.90
2019-04-30T23:02:00.364Z,8.90
2019-04-30T23:04:40.382Z,8.90
2019-04-30T23:07:09.699Z,8.90
2019-04-30T23:09:39.034Z,8.90
2019-04-30T23:12:08.369Z,8.90
2019-04-30T23:14:37.701Z,8.80
2019-04-30T23:17:07.094Z,8.80
2019-04-30T23:19:36.422Z,8.70
2019-04-30T23:22:05.752Z,8.80
2019-04-30T23:24:35.083Z,8.70
2019-04-30T23:27:04.428Z,8.70
2019-04-30T23:29:33.762Z,8.70
2019-04-30T23:32:03.098Z,8.70
2019-04-30T23:34:32.506Z,8.70
2019-04-30T23:37:01.832Z,8.70
2019-04-30T23:39:31.183Z,8.60
2019-04-30T23:42:00.529Z,8.60
2019-04-30T23:44:30.710Z,8.60
2019-04-30T23:47:00.032Z,8.50
2019-04-30T23:49:29.442Z,8.50
2019-04-30T23:52:00.098Z,8.50
2019-04-30T23:54:29.417Z,8.40
2019-04-30T23:56:58.739Z,8.20
2019-04-30T23:59:28.078Z,8.10
